createdAt,value
2023-03-16T00:02:06.483Z,-0.65
2023-03-16T00:04:37.972Z,-0.68
2023-03-16T00:07:07.036Z,-0.71
2023-03-16T00:09:34.047Z,-0.75
2023-03-16T00:12:04.860Z,-0.81
2023-03-16T00:14:35.793Z,-0.85
2023-03-16T00:17:06.350Z,-0.91
2023-03-16T00:19:35.343Z,-0.95
2023-03-16T00:22:02.551Z,-0.98
2023-03-16T00:24:29.427Z,-1.02
2023-03-16T00:26:56.492Z,-1.06
2023-03-16T00:29:23.396Z,-1.12
2023-03-16T00:31:50.330Z,-1.21
2023-03-16T00:34:17.894Z,-1.27
2023-03-16T00:36:44.707Z,-1.33
2023-03-16T00:39:12.091Z,-1.38
2023-03-16T00:41:39.774Z,-1.42
2023-03-16T00:44:09.582Z,-1.45
2023-03-16T00:46:36.338Z,-1.49
2023-03-16T00:49:03.339Z,-1.55
2023-03-16T00:51:34.032Z,-1.58
2023-03-16T00:54:00.895Z,-1.61
2023-03-16T00:56:27.718Z,-1.63
2023-03-16T00:58:57.981Z,-1.64
2023-03-16T01:01:25.283Z,-1.65
2023-03-16T01:03:52.324Z,-1.69
2023-03-16T01:06:20.858Z,-1.72
2023-03-16T01:08:48.660Z,-1.74
2023-03-16T01:11:18.689Z,-1.79
2023-03-16T01:13:50.157Z,-1.84
2023-03-16T01:16:23.543Z,-1.89
2023-03-16T01:18:52.623Z,-1.91
2023-03-16T01:21:22.350Z,-1.94
2023-03-16T01:23:50.341Z,-1.99
2023-03-16T01:26:19.001Z,-2.03
2023-03-16T01:28:48.106Z,-2.10
2023-03-16T01:31:15.811Z,-2.16
2023-03-16T01:33:45.002Z,-2.23
2023-03-16T01:36:17.971Z,-2.28
2023-03-16T01:39:06.891Z,-2.31
2023-03-16T01:41:42.035Z,-2.34
2023-03-16T01:44:20.216Z,-2.35
2023-03-16T01:46:47.223Z,-2.41
2023-03-16T01:49:36.543Z,-2.44
2023-03-16T01:52:10.482Z,-2.45
2023-03-16T01:54:57.357Z,-2.46
2023-03-16T01:57:30.681Z,-2.48
2023-03-16T02:00:10.003Z,-2.52
2023-03-16T02:02:48.709Z,-2.57
2023-03-16T02:05:23.628Z,-2.64
2023-03-16T02:07:58.693Z,-2.73
2023-03-16T02:10:28.659Z,-2.82
2023-03-16T02:12:56.283Z,-2.86
2023-03-16T02:18:25.280Z,-2.88
2023-03-16T02:21:05.391Z,-2.86
2023-03-16T02:23:32.743Z,-2.86
2023-03-16T02:26:26.187Z,-2.86
2023-03-16T02:29:23.376Z,-2.83
2023-03-16T02:31:50.497Z,-2.79
2023-03-16T02:34:18.289Z,-2.77
2023-03-16T02:36:48.690Z,-2.77
2023-03-16T02:39:16.175Z,-2.78
2023-03-16T02:41:46.975Z,-2.79
2023-03-16T02:44:18.083Z,-2.82
2023-03-16T02:46:46.943Z,-2.84
2023-03-16T02:49:21.857Z,-2.86
2023-03-16T02:51:48.760Z,-2.90
2023-03-16T02:54:15.907Z,-2.94
2023-03-16T02:56:42.840Z,-2.95
2023-03-16T02:59:10.081Z,-2.96
2023-03-16T03:01:37.180Z,-2.96
2023-03-16T03:04:05.497Z,-2.95
2023-03-16T03:06:32.988Z,-2.93
2023-03-16T03:09:02.194Z,-2.93
2023-03-16T03:11:29.617Z,-2.95
2023-03-16T03:13:56.776Z,-2.97
2023-03-16T03:16:25.762Z,-3.02
2023-03-16T03:18:54.076Z,-3.07
2023-03-16T03:21:21.438Z,-3.11
2023-03-16T03:23:48.354Z,-3.15
2023-03-16T03:26:16.498Z,-3.16
2023-03-16T03:28:44.866Z,-3.16
2023-03-16T03:31:21.921Z,-3.16
2023-03-16T03:33:49.406Z,-3.16
2023-03-16T03:36:16.328Z,-3.21
2023-03-16T03:38:44.490Z,-3.30
2023-03-16T03:41:12.908Z,-3.36
2023-03-16T03:43:39.890Z,-3.38
2023-03-16T03:46:08.636Z,-3.39
2023-03-16T03:48:35.569Z,-3.41
2023-03-16T03:51:02.553Z,-3.45
2023-03-16T03:53:38.682Z,-3.48
2023-03-16T03:56:21.856Z,-3.53
2023-03-16T03:58:52.505Z,-3.60
2023-03-16T04:01:27.070Z,-3.66
2023-03-16T04:03:54.054Z,-3.68
2023-03-16T04:06:20.944Z,-3.70
2023-03-16T04:08:47.958Z,-3.71
2023-03-16T04:11:17.022Z,-3.71
2023-03-16T04:13:44.166Z,-3.71
2023-03-16T04:16:11.332Z,-3.73
2023-03-16T04:18:43.104Z,-3.76
2023-03-16T04:21:16.029Z,-3.83
2023-03-16T04:23:44.571Z,-3.87
2023-03-16T04:26:11.914Z,-3.87
2023-03-16T04:28:40.345Z,-3.85
2023-03-16T04:31:10.789Z,-3.86
2023-03-16T04:33:42.513Z,-3.91
2023-03-16T04:36:09.759Z,-3.98
2023-03-16T04:38:37.674Z,-4.03
2023-03-16T04:41:05.989Z,-4.04
2023-03-16T04:43:35.565Z,-4.04
2023-03-16T04:46:08.163Z,-4.01
2023-03-16T04:48:36.630Z,-3.99
2023-03-16T04:51:06.359Z,-4.00
2023-03-16T04:53:35.668Z,-4.02
2023-03-16T04:56:08.692Z,-4.04
2023-03-16T04:58:35.992Z,-4.07
2023-03-16T05:01:03.626Z,-4.11
2023-03-16T05:03:31.281Z,-4.11
2023-03-16T05:05:58.442Z,-4.10
2023-03-16T05:08:26.034Z,-4.07
2023-03-16T05:10:57.526Z,-4.03
2023-03-16T05:13:25.258Z,-4.02
2023-03-16T05:15:54.084Z,-4.01
2023-03-16T05:18:28.277Z,-3.97
2023-03-16T05:20:56.453Z,-3.92
2023-03-16T05:23:24.864Z,-3.90
2023-03-16T05:25:59.937Z,-3.84
2023-03-16T05:28:27.665Z,-3.80
2023-03-16T05:30:59.836Z,-3.74
2023-03-16T05:33:27.403Z,-3.69
2023-03-16T05:36:03.201Z,-3.66
2023-03-16T05:38:32.143Z,-3.61
2023-03-16T05:41:03.975Z,-3.48
2023-03-16T05:43:46.716Z,-3.20
2023-03-16T05:46:16.006Z,-2.71
2023-03-16T05:48:42.995Z,-2.05
2023-03-16T05:51:14.283Z,-1.31
2023-03-16T05:53:41.710Z,-0.51
2023-03-16T05:56:15.233Z,0.23
2023-03-16T05:58:43.193Z,1.00
2023-03-16T06:01:11.369Z,1.82
2023-03-16T06:03:38.505Z,2.55
2023-03-16T06:06:07.342Z,3.27
2023-03-16T06:08:39.152Z,3.91
2023-03-16T06:11:08.983Z,4.53
2023-03-16T06:13:36.381Z,5.22
2023-03-16T06:16:04.086Z,5.83
2023-03-16T06:18:31.255Z,6.40
2023-03-16T06:20:58.916Z,7.00
2023-03-16T06:23:25.864Z,7.57
2023-03-16T06:25:56.317Z,8.10
2023-03-16T06:28:24.429Z,8.56
2023-03-16T06:30:56.040Z,8.99
2023-03-16T06:33:24.483Z,9.42
2023-03-16T06:35:51.668Z,9.76
2023-03-16T06:38:26.968Z,10.24
2023-03-16T06:41:19.900Z,11.06
2023-03-16T06:43:47.219Z,11.43
2023-03-16T06:46:14.239Z,11.60
2023-03-16T06:48:42.154Z,11.82
2023-03-16T06:51:09.594Z,12.17
2023-03-16T06:53:36.825Z,12.40
2023-03-16T06:56:03.973Z,12.60
2023-03-16T06:58:33.166Z,12.80
2023-03-16T07:01:03.793Z,13.16
2023-03-16T07:03:31.546Z,13.59
2023-03-16T07:06:02.551Z,13.94
2023-03-16T07:08:29.437Z,14.33
2023-03-16T07:10:56.395Z,14.72
2023-03-16T07:13:23.907Z,14.99
2023-03-16T07:15:52.383Z,15.43
2023-03-16T07:18:20.370Z,15.91
2023-03-16T07:20:47.833Z,16.40
2023-03-16T07:23:15.716Z,16.90
2023-03-16T07:25:44.832Z,17.24
2023-03-16T07:28:13.083Z,17.73
2023-03-16T07:30:53.235Z,18.25
2023-03-16T07:33:28.033Z,18.44
2023-03-16T07:35:55.142Z,18.68
2023-03-16T07:38:22.054Z,18.84
2023-03-16T07:40:49.977Z,19.06
2023-03-16T07:43:20.429Z,19.31
2023-03-16T07:45:51.709Z,19.50
2023-03-16T07:48:19.874Z,19.57
2023-03-16T07:50:51.141Z,19.59
2023-03-16T07:53:18.433Z,19.58
2023-03-16T07:55:49.526Z,19.66
2023-03-16T07:58:17.071Z,19.82
2023-03-16T08:00:43.968Z,20.14
2023-03-16T08:03:10.930Z,20.60
2023-03-16T08:05:38.234Z,21.09
2023-03-16T08:08:12.322Z,21.28
2023-03-16T08:10:39.318Z,21.55
2023-03-16T08:13:10.674Z,21.82
2023-03-16T08:15:40.577Z,22.07
2023-03-16T08:18:12.697Z,22.43
2023-03-16T08:20:40.161Z,22.54
2023-03-16T08:23:08.423Z,22.61
2023-03-16T08:25:38.163Z,22.64
2023-03-16T08:28:09.574Z,22.91
2023-03-16T08:30:36.774Z,23.23
2023-03-16T08:33:23.442Z,23.62
2023-03-16T08:35:51.335Z,23.64
2023-03-16T08:38:19.424Z,23.61
2023-03-16T08:40:49.996Z,23.97
2023-03-16T08:43:19.562Z,24.31
2023-03-16T08:45:47.140Z,24.26
2023-03-16T08:48:15.310Z,24.48
2023-03-16T08:50:44.791Z,25.00
2023-03-16T08:53:14.174Z,24.84
2023-03-16T08:55:44.200Z,24.43
2023-03-16T08:58:13.664Z,24.31
2023-03-16T09:00:41.679Z,23.82
2023-03-16T09:03:08.596Z,23.48
2023-03-16T09:05:38.454Z,23.55
2023-03-16T09:08:06.383Z,23.59
2023-03-16T09:10:33.863Z,23.35
2023-03-16T09:13:00.777Z,23.56
2023-03-16T09:15:29.306Z,22.57
2023-03-16T09:17:57.628Z,20.64
2023-03-16T09:20:29.493Z,18.85
2023-03-16T09:22:59.204Z,18.14
2023-03-16T09:25:26.493Z,19.18
2023-03-16T09:27:54.055Z,20.40
2023-03-16T09:30:21.066Z,20.69
2023-03-16T09:32:49.152Z,21.08
2023-03-16T09:35:16.227Z,21.75
2023-03-16T09:37:45.952Z,20.95
2023-03-16T09:40:29.256Z,20.32
2023-03-16T09:43:02.146Z,20.01
2023-03-16T09:45:42.112Z,18.07
2023-03-16T09:48:11.446Z,17.29
2023-03-16T09:50:48.916Z,18.16
2023-03-16T09:53:29.512Z,19.16
2023-03-16T09:56:04.458Z,20.43
2023-03-16T09:58:34.713Z,20.82
2023-03-16T10:01:13.539Z,19.67
2023-03-16T10:04:35.818Z,18.47
2023-03-16T10:07:22.337Z,17.44
2023-03-16T10:10:18.574Z,17.28
2023-03-16T10:12:50.588Z,16.62
2023-03-16T10:15:22.763Z,15.51
2023-03-16T10:17:57.098Z,14.92
2023-03-16T10:20:25.092Z,14.94
2023-03-16T10:22:53.196Z,14.63
2023-03-16T10:25:35.595Z,15.45
2023-03-16T10:28:02.803Z,17.01
2023-03-16T10:30:34.394Z,18.04
2023-03-16T10:33:05.649Z,18.82
2023-03-16T10:35:49.020Z,19.92
2023-03-16T10:38:40.693Z,20.19
2023-03-16T10:41:25.764Z,20.07
2023-03-16T10:44:06.284Z,20.03
2023-03-16T10:47:00.496Z,19.73
2023-03-16T10:49:42.185Z,19.71
2023-03-16T10:52:20.303Z,19.87
2023-03-16T10:54:57.704Z,19.68
2023-03-16T10:57:34.049Z,19.50
2023-03-16T11:00:15.643Z,19.34
2023-03-16T11:02:43.336Z,18.60
2023-03-16T11:05:29.895Z,18.45
2023-03-16T11:08:09.671Z,18.56
2023-03-16T11:10:55.115Z,19.10
2023-03-16T11:13:28.221Z,19.61
2023-03-16T11:16:05.423Z,18.82
2023-03-16T11:18:44.664Z,17.11
2023-03-16T11:21:30.748Z,16.52
2023-03-16T11:24:00.359Z,16.91
2023-03-16T11:26:37.713Z,17.14
2023-03-16T11:29:13.481Z,17.32
2023-03-16T11:31:57.984Z,17.54
2023-03-16T11:34:30.794Z,17.65
2023-03-16T11:37:04.679Z,17.78
2023-03-16T11:39:50.661Z,18.24
2023-03-16T11:42:37.999Z,18.73
2023-03-16T11:45:25.066Z,19.10
2023-03-16T11:47:58.675Z,19.45
2023-03-16T11:50:33.164Z,19.63
2023-03-16T11:53:28.728Z,19.79
2023-03-16T11:56:20.776Z,19.70
2023-03-16T11:59:24.829Z,19.64
2023-03-16T12:02:03.095Z,19.65
2023-03-16T12:04:59.946Z,19.21
2023-03-16T12:07:59.375Z,17.99
2023-03-16T12:10:31.229Z,17.00
2023-03-16T12:13:27.831Z,16.42
2023-03-16T12:16:15.794Z,15.80
2023-03-16T12:18:48.813Z,14.99
2023-03-16T12:21:22.835Z,14.28
2023-03-16T12:23:52.641Z,13.64
2023-03-16T12:26:22.980Z,13.01
2023-03-16T12:28:54.470Z,12.41
2023-03-16T12:31:28.838Z,11.86
2023-03-16T12:34:13.968Z,11.29
2023-03-16T12:37:18.641Z,10.75
2023-03-16T12:40:19.759Z,10.26
2023-03-16T12:43:19.794Z,9.80
2023-03-16T12:46:14.921Z,9.34
2023-03-16T12:48:49.840Z,8.90
2023-03-16T12:51:19.636Z,8.60
2023-03-16T12:53:55.847Z,8.37
2023-03-16T12:56:33.240Z,8.08
2023-03-16T12:59:06.808Z,7.83
2023-03-16T13:01:44.498Z,7.69
2023-03-16T13:04:17.217Z,7.63
2023-03-16T13:06:50.871Z,7.61
2023-03-16T13:09:28.332Z,7.51
2023-03-16T13:11:57.281Z,7.40
2023-03-16T13:14:38.796Z,7.38
2023-03-16T13:17:39.029Z,7.37
2023-03-16T13:20:36.125Z,7.34
2023-03-16T13:23:26.694Z,7.34
2023-03-16T13:26:16.849Z,7.27
2023-03-16T13:28:52.485Z,7.22
2023-03-16T13:31:37.877Z,7.18
2023-03-16T13:34:13.832Z,7.20
2023-03-16T13:44:50.152Z,7.33
2023-03-16T13:47:32.152Z,7.31
2023-03-16T13:50:00.602Z,7.24
2023-03-16T13:52:35.439Z,7.24
2023-03-16T13:55:22.947Z,7.25
2023-03-16T13:57:59.318Z,7.25
2023-03-16T14:00:46.044Z,7.23
2023-03-16T14:06:18.894Z,7.29
2023-03-16T14:08:57.046Z,7.37
2023-03-16T14:11:28.732Z,7.44
2023-03-16T14:13:57.943Z,7.48
2023-03-16T14:16:28.637Z,7.43
2023-03-16T14:19:02.999Z,7.41
2023-03-16T14:21:34.413Z,7.36
2023-03-16T14:24:06.908Z,7.28
2023-03-16T14:26:48.286Z,7.25
2023-03-16T14:29:26.624Z,7.26
2023-03-16T14:31:54.920Z,7.24
2023-03-16T14:34:39.751Z,7.22
2023-03-16T14:37:07.757Z,7.22
2023-03-16T14:39:34.704Z,7.24
2023-03-16T14:42:05.631Z,7.21
2023-03-16T14:44:37.094Z,7.14
2023-03-16T14:47:06.304Z,7.14
2023-03-16T14:49:38.706Z,7.14
2023-03-16T14:52:15.565Z,7.10
2023-03-16T14:54:42.427Z,7.04
2023-03-16T14:57:17.330Z,6.99
2023-03-16T14:59:44.254Z,6.99
2023-03-16T15:02:23.419Z,6.99
2023-03-16T15:04:51.129Z,6.98
2023-03-16T15:07:30.732Z,6.98
2023-03-16T15:10:17.496Z,6.97
2023-03-16T15:12:50.842Z,6.97
2023-03-16T15:15:22.760Z,6.96
2023-03-16T15:17:52.120Z,6.94
2023-03-16T15:20:24.372Z,6.95
2023-03-16T15:22:53.157Z,6.94
2023-03-16T15:25:23.059Z,6.91
2023-03-16T15:27:51.309Z,6.90
2023-03-16T15:30:22.023Z,6.89
2023-03-16T15:32:48.924Z,6.88
2023-03-16T15:35:16.923Z,6.86
2023-03-16T15:37:44.289Z,6.82
2023-03-16T15:40:24.645Z,6.77
2023-03-16T15:42:52.500Z,6.73
2023-03-16T15:45:22.838Z,6.68
2023-03-16T15:47:51.547Z,6.63
2023-03-16T15:50:21.969Z,6.58
2023-03-16T15:53:00.493Z,6.54
2023-03-16T15:55:40.007Z,6.53
2023-03-16T15:58:10.854Z,6.54
2023-03-16T16:00:39.777Z,6.55
2023-03-16T16:03:07.517Z,6.53
2023-03-16T16:05:35.789Z,6.49
2023-03-16T16:08:02.982Z,6.37
2023-03-16T16:10:30.568Z,6.23
2023-03-16T16:12:59.354Z,6.11
2023-03-16T16:15:34.262Z,5.97
2023-03-16T16:18:21.000Z,5.84
2023-03-16T16:20:49.917Z,5.71
2023-03-16T16:23:18.283Z,5.62
2023-03-16T16:25:47.086Z,5.55
2023-03-16T16:28:17.856Z,5.48
2023-03-16T16:30:46.239Z,5.42
2023-03-16T16:33:33.547Z,5.38
2023-03-16T16:36:08.464Z,5.32
2023-03-16T16:38:35.715Z,5.29
2023-03-16T16:41:08.153Z,5.25
2023-03-16T16:43:41.814Z,5.21
2023-03-16T16:46:21.411Z,5.18
2023-03-16T16:48:51.244Z,5.16
2023-03-16T16:51:21.863Z,5.14
2023-03-16T16:53:50.576Z,5.12
2023-03-16T16:56:21.221Z,5.11
2023-03-16T16:58:48.104Z,5.09
2023-03-16T17:01:22.402Z,5.05
2023-03-16T17:03:49.345Z,4.99
2023-03-16T17:06:18.499Z,4.91
2023-03-16T17:08:46.960Z,4.80
2023-03-16T17:11:27.217Z,4.69
2023-03-16T17:13:57.065Z,4.56
2023-03-16T17:16:26.720Z,4.44
2023-03-16T17:18:54.042Z,4.30
2023-03-16T17:21:24.004Z,4.19
2023-03-16T17:23:53.059Z,4.06
2023-03-16T17:26:26.382Z,3.89
2023-03-16T17:28:59.449Z,3.77
2023-03-16T17:31:35.173Z,3.67
2023-03-16T17:34:09.279Z,3.57
2023-03-16T17:36:36.349Z,3.44
2023-03-16T17:39:03.465Z,3.30
2023-03-16T17:41:33.108Z,3.18
2023-03-16T17:44:02.820Z,3.07
2023-03-16T17:46:31.161Z,2.92
2023-03-16T17:49:00.397Z,2.86
2023-03-16T17:51:28.082Z,2.82
2023-03-16T17:53:56.040Z,2.80
2023-03-16T17:56:27.106Z,2.77
2023-03-16T17:58:58.767Z,2.72
2023-03-16T18:01:34.712Z,2.65
2023-03-16T18:04:02.935Z,2.58
2023-03-16T18:06:31.742Z,2.50
2023-03-16T18:08:58.701Z,2.40
2023-03-16T18:11:34.521Z,2.26
2023-03-16T18:14:04.460Z,2.13
2023-03-16T18:16:31.791Z,1.96
2023-03-16T18:19:04.217Z,1.79
2023-03-16T18:21:33.781Z,1.68
2023-03-16T18:24:00.746Z,1.62
2023-03-16T18:26:28.285Z,1.57
2023-03-16T18:28:55.739Z,1.53
2023-03-16T18:31:29.767Z,1.49
2023-03-16T18:33:59.890Z,1.41
2023-03-16T18:36:35.662Z,1.32
2023-03-16T18:39:06.348Z,1.23
2023-03-16T18:41:35.180Z,1.15
2023-03-16T18:44:18.839Z,1.07
2023-03-16T18:46:47.375Z,0.98
2023-03-16T18:49:34.270Z,0.92
2023-03-16T18:52:01.782Z,0.81
2023-03-16T18:54:30.853Z,0.68
2023-03-16T18:57:01.276Z,0.63
2023-03-16T18:59:28.276Z,0.60
2023-03-16T19:01:55.527Z,0.56
2023-03-16T19:04:26.029Z,0.52
2023-03-16T19:06:54.897Z,0.43
2023-03-16T19:09:30.631Z,0.36
2023-03-16T19:11:59.170Z,0.32
2023-03-16T19:14:31.070Z,0.25
2023-03-16T19:16:58.245Z,0.17
2023-03-16T19:19:25.880Z,0.13
2023-03-16T19:21:56.860Z,0.07
2023-03-16T19:24:34.788Z,-0.07
2023-03-16T19:27:02.238Z,-0.24
2023-03-16T19:29:34.676Z,-0.37
2023-03-16T19:32:02.396Z,-0.44
2023-03-16T19:34:29.888Z,-0.46
2023-03-16T19:36:56.810Z,-0.48
2023-03-16T19:39:23.825Z,-0.51
2023-03-16T19:41:57.810Z,-0.52
2023-03-16T19:44:27.528Z,-0.54
2023-03-16T19:46:55.298Z,-0.55
2023-03-16T19:49:26.100Z,-0.60
2023-03-16T19:51:55.164Z,-0.61
2023-03-16T19:54:22.285Z,-0.61
2023-03-16T19:56:50.046Z,-0.63
2023-03-16T19:59:17.809Z,-0.67
2023-03-16T20:01:45.345Z,-0.72
2023-03-16T20:04:23.991Z,-0.75
2023-03-16T20:06:51.506Z,-0.75
2023-03-16T20:09:18.648Z,-0.76
2023-03-16T20:11:46.199Z,-0.75
2023-03-16T20:14:24.041Z,-0.76
2023-03-16T20:16:51.286Z,-0.80
2023-03-16T20:19:19.742Z,-0.85
2023-03-16T20:21:48.773Z,-0.89
2023-03-16T20:24:24.831Z,-0.92
2023-03-16T20:26:54.143Z,-0.95
2023-03-16T20:29:30.416Z,-0.97
2023-03-16T20:31:58.155Z,-0.98
2023-03-16T20:34:28.552Z,-0.98
2023-03-16T20:36:56.305Z,-1.01
2023-03-16T20:39:23.226Z,-1.05
2023-03-16T20:41:51.126Z,-1.07
2023-03-16T20:44:21.627Z,-1.06
2023-03-16T20:46:51.450Z,-1.05
2023-03-16T20:49:25.619Z,-1.03
2023-03-16T20:51:53.495Z,-1.00
2023-03-16T20:54:21.211Z,-0.97
2023-03-16T20:56:49.519Z,-0.94
2023-03-16T20:59:25.010Z,-0.91
2023-03-16T21:01:55.947Z,-0.86
2023-03-16T21:04:35.283Z,-0.87
2023-03-16T21:07:02.635Z,-0.93
2023-03-16T21:09:32.832Z,-0.92
2023-03-16T21:12:00.232Z,-0.86
2023-03-16T21:14:27.639Z,-0.83
2023-03-16T21:16:54.932Z,-0.82
2023-03-16T21:19:23.547Z,-0.84
2023-03-16T21:21:51.163Z,-0.82
2023-03-16T21:24:18.521Z,-0.76
2023-03-16T21:26:47.790Z,-0.76
2023-03-16T21:29:18.871Z,-0.73
2023-03-16T21:31:46.705Z,-0.73
2023-03-16T21:34:33.440Z,-0.73
2023-03-16T21:37:00.687Z,-0.74
2023-03-16T21:39:28.764Z,-0.74
2023-03-16T21:41:56.609Z,-0.79
2023-03-16T21:44:24.084Z,-0.84
2023-03-16T21:46:51.663Z,-0.85
2023-03-16T21:49:20.433Z,-0.85
2023-03-16T21:51:49.669Z,-0.89
2023-03-16T21:54:18.643Z,-0.98
2023-03-16T21:56:48.459Z,-1.05
2023-03-16T21:59:15.843Z,-1.12
2023-03-16T22:01:58.680Z,-1.25
2023-03-16T22:04:28.828Z,-1.38
2023-03-16T22:06:56.314Z,-1.50
2023-03-16T22:09:25.165Z,-1.57
2023-03-16T22:11:52.198Z,-1.62
2023-03-16T22:14:19.750Z,-1.69
2023-03-16T22:16:47.076Z,-1.73
2023-03-16T22:19:16.087Z,-1.73
2023-03-16T22:21:44.786Z,-1.76
2023-03-16T22:24:22.025Z,-1.83
2023-03-16T22:26:50.338Z,-1.91
2023-03-16T22:29:24.209Z,-1.99
2023-03-16T22:31:55.591Z,-2.07
2023-03-16T22:34:37.052Z,-2.09
2023-03-16T22:37:05.850Z,-2.12
2023-03-16T22:39:38.358Z,-2.20
2023-03-16T22:42:38.327Z,-2.24
2023-03-16T22:45:28.043Z,-2.28
2023-03-16T22:47:57.002Z,-2.28
2023-03-16T22:50:27.808Z,-2.29
2023-03-16T22:53:01.527Z,-2.30
2023-03-16T22:55:36.988Z,-2.29
2023-03-16T22:58:18.593Z,-2.29
2023-03-16T23:00:46.470Z,-2.33
2023-03-16T23:03:19.973Z,-2.36
2023-03-16T23:05:47.531Z,-2.40
2023-03-16T23:08:23.892Z,-2.45
2023-03-16T23:10:52.214Z,-2.48
2023-03-16T23:13:24.999Z,-2.49
2023-03-16T23:15:53.776Z,-2.50
2023-03-16T23:18:24.627Z,-2.54
2023-03-16T23:20:53.209Z,-2.56
2023-03-16T23:23:20.573Z,-2.58
2023-03-16T23:25:48.146Z,-2.61
2023-03-16T23:28:23.316Z,-2.63
2023-03-16T23:30:50.870Z,-2.67
2023-03-16T23:33:18.253Z,-2.73
2023-03-16T23:35:47.153Z,-2.75
2023-03-16T23:38:14.276Z,-2.77
2023-03-16T23:40:42.073Z,-2.81
2023-03-16T23:43:09.885Z,-2.87
2023-03-16T23:45:42.851Z,-2.93
2023-03-16T23:48:20.401Z,-2.97
2023-03-16T23:50:54.765Z,-2.97
2023-03-16T23:53:21.953Z,-2.97
2023-03-16T23:55:49.387Z,-2.96
2023-03-16T23:58:17.591Z,-2.95
